sensor_id;sensor_type;location;lat;lon;timestamp;temperature;humidity
4058;DHT22;2044;48.692;9.020;2023-04-15T00:01:49;0.60;99.90
4058;DHT22;2044;48.692;9.020;2023-04-15T00:04:16;0.70;99.90
4058;DHT22;2044;48.692;9.020;2023-04-15T00:06:49;0.60;99.90
4058;DHT22;2044;48.692;9.020;2023-04-15T00:09:16;0.70;99.90
4058;DHT22;2044;48.692;9.020;2023-04-15T00:11:43;0.60;99.90
4058;DHT22;2044;48.692;9.020;2023-04-15T00:14:11;0.50;99.90
4058;DHT22;2044;48.692;9.020;2023-04-15T00:16:38;0.90;99.90
4058;DHT22;2044;48.692;9.020;2023-04-15T00:19:05;1.10;99.90
4058;DHT22;2044;48.692;9.020;2023-04-15T00:21:31;1.10;99.90
4058;DHT22;2044;48.692;9.020;2023-04-15T00:23:58;0.80;99.90
4058;DHT22;2044;48.692;9.020;2023-04-15T00:26:25;0.70;99.90
4058;DHT22;2044;48.692;9.020;2023-04-15T00:28:52;0.50;99.90
4058;DHT22;2044;48.692;9.020;2023-04-15T00:31:20;0.50;99.90
4058;DHT22;2044;48.692;9.020;2023-04-15T00:33:47;0.40;99.90
4058;DHT22;2044;48.692;9.020;2023-04-15T00:36:14;0.40;99.90
4058;DHT22;2044;48.692;9.020;2023-04-15T00:38:41;0.40;99.90
4058;DHT22;2044;48.692;9.020;2023-04-15T00:41:09;0.30;99.90
4058;DHT22;2044;48.692;9.020;2023-04-15T00:43:36;0.20;99.90
4058;DHT22;2044;48.692;9.020;2023-04-15T00:46:03;0.10;99.90
4058;DHT22;2044;48.692;9.020;2023-04-15T00:48:32;0.00;99.90
4058;DHT22;2044;48.692;9.020;2023-04-15T00:50:59;0.00;99.90
4058;DHT22;2044;48.692;9.020;2023-04-15T00:53:26;0.10;99.90
4058;DHT22;2044;48.692;9.020;2023-04-15T00:55:53;0.00;99.90
4058;DHT22;2044;48.692;9.020;2023-04-15T00:58:20;-0.30;99.90
4058;DHT22;2044;48.692;9.020;2023-04-15T01:00:47;-0.30;99.90
4058;DHT22;2044;48.692;9.020;2023-04-15T01:03:13;-0.20;99.90
4058;DHT22;2044;48.692;9.020;2023-04-15T01:05:42;-0.20;99.90
4058;DHT22;2044;48.692;9.020;2023-04-15T01:08:08;0.40;99.90
4058;DHT22;2044;48.692;9.020;2023-04-15T01:10:35;0.40;99.90
4058;DHT22;2044;48.692;9.020;2023-04-15T01:13:02;0.40;99.90
4058;DHT22;2044;48.692;9.020;2023-04-15T01:22:53;0.20;99.90
4058;DHT22;2044;48.692;9.020;2023-04-15T01:25:29;0.40;99.90
4058;DHT22;2044;48.692;9.020;2023-04-15T01:27:57;0.30;99.90
4058;DHT22;2044;48.692;9.020;2023-04-15T01:45:10;-0.20;99.90
4058;DHT22;2044;48.692;9.020;2023-04-15T01:54:59;-0.30;99.90
4058;DHT22;2044;48.692;9.020;2023-04-15T01:59:54;-0.40;99.90
4058;DHT22;2044;48.692;9.020;2023-04-15T02:14:38;-0.60;99.90
4058;DHT22;2044;48.692;9.020;2023-04-15T02:17:06;-0.60;99.90
4058;DHT22;2044;48.692;9.020;2023-04-15T02:19:33;-0.50;99.90
4058;DHT22;2044;48.692;9.020;2023-04-15T02:21:59;-0.40;99.90
4058;DHT22;2044;48.692;9.020;2023-04-15T02:24:27;-0.40;99.90
4058;DHT22;2044;48.692;9.020;2023-04-15T02:26:54;0.00;99.90
4058;DHT22;2044;48.692;9.020;2023-04-15T02:29:21;-0.10;99.90
4058;DHT22;2044;48.692;9.020;2023-04-15T02:31:48;-0.20;99.90
4058;DHT22;2044;48.692;9.020;2023-04-15T02:34:16;-0.40;99.90
4058;DHT22;2044;48.692;9.020;2023-04-15T02:36:43;-0.40;99.90
4058;DHT22;2044;48.692;9.020;2023-04-15T02:39:11;-0.20;99.90
4058;DHT22;2044;48.692;9.020;2023-04-15T02:41:39;-0.20;99.90
4058;DHT22;2044;48.692;9.020;2023-04-15T02:49:05;0.10;99.90
4058;DHT22;2044;48.692;9.020;2023-04-15T02:51:34;0.00;99.90
4058;DHT22;2044;48.692;9.020;2023-04-15T02:56:27;-0.30;99.90
4058;DHT22;2044;48.692;9.020;2023-04-15T02:58:55;-0.30;99.90
4058;DHT22;2044;48.692;9.020;2023-04-15T03:01:22;-0.30;99.90
4058;DHT22;2044;48.692;9.020;2023-04-15T03:03:50;-0.20;99.90
4058;DHT22;2044;48.692;9.020;2023-04-15T03:06:17;-0.20;99.90
4058;DHT22;2044;48.692;9.020;2023-04-15T03:08:45;0.00;99.90
4058;DHT22;2044;48.692;9.020;2023-04-15T03:11:11;0.20;99.90
4058;DHT22;2044;48.692;9.020;2023-04-15T03:16:06;0.40;99.90
4058;DHT22;2044;48.692;9.020;2023-04-15T03:18:33;0.40;99.90
4058;DHT22;2044;48.692;9.020;2023-04-15T03:21:00;0.30;99.90
4058;DHT22;2044;48.692;9.020;2023-04-15T03:23:27;-0.10;99.90
4058;DHT22;2044;48.692;9.020;2023-04-15T03:25:55;-0.10;99.90
4058;DHT22;2044;48.692;9.020;2023-04-15T03:28:22;-0.60;99.90
4058;DHT22;2044;48.692;9.020;2023-04-15T03:30:49;-0.60;99.90
4058;DHT22;2044;48.692;9.020;2023-04-15T03:33:16;-0.50;99.90
4058;DHT22;2044;48.692;9.020;2023-04-15T03:35:42;-0.50;99.90
4058;DHT22;2044;48.692;9.020;2023-04-15T03:38:09;-0.60;99.90
4058;DHT22;2044;48.692;9.020;2023-04-15T03:40:39;-0.50;99.90
4058;DHT22;2044;48.692;9.020;2023-04-15T03:43:07;-0.40;99.90
4058;DHT22;2044;48.692;9.020;2023-04-15T03:45:34;-0.40;99.90
4058;DHT22;2044;48.692;9.020;2023-04-15T03:48:01;-0.60;99.90
4058;DHT22;2044;48.692;9.020;2023-04-15T03:50:27;-0.60;99.90
4058;DHT22;2044;48.692;9.020;2023-04-15T03:52:54;-0.70;99.90
4058;DHT22;2044;48.692;9.020;2023-04-15T03:55:20;-0.70;99.90
4058;DHT22;2044;48.692;9.020;2023-04-15T03:57:47;-0.90;99.90
4058;DHT22;2044;48.692;9.020;2023-04-15T04:00:15;-1.00;99.90
4058;DHT22;2044;48.692;9.020;2023-04-15T04:02:43;-1.00;99.90
4058;DHT22;2044;48.692;9.020;2023-04-15T04:05:10;-0.90;99.90
4058;DHT22;2044;48.692;9.020;2023-04-15T04:07:37;-0.90;99.90
4058;DHT22;2044;48.692;9.020;2023-04-15T04:10:04;-0.90;99.90
4058;DHT22;2044;48.692;9.020;2023-04-15T04:12:31;-0.50;99.90
4058;DHT22;2044;48.692;9.020;2023-04-15T04:14:57;-0.50;99.90
4058;DHT22;2044;48.692;9.020;2023-04-15T04:17:25;-0.70;99.90
4058;DHT22;2044;48.692;9.020;2023-04-15T04:19:52;-0.70;99.90
4058;DHT22;2044;48.692;9.020;2023-04-15T04:22:21;-0.60;99.90
4058;DHT22;2044;48.692;9.020;2023-04-15T04:24:49;-0.60;99.90
4058;DHT22;2044;48.692;9.020;2023-04-15T04:27:15;-0.70;99.90
4058;DHT22;2044;48.692;9.020;2023-04-15T04:32:11;-0.90;99.90
4058;DHT22;2044;48.692;9.020;2023-04-15T04:34:39;-0.90;99.90
4058;DHT22;2044;48.692;9.020;2023-04-15T04:39:33;-0.90;99.90
4058;DHT22;2044;48.692;9.020;2023-04-15T04:42:00;-0.60;99.90
4058;DHT22;2044;48.692;9.020;2023-04-15T04:44:27;-0.50;99.90
4058;DHT22;2044;48.692;9.020;2023-04-15T04:46:54;-0.40;99.90
4058;DHT22;2044;48.692;9.020;2023-04-15T04:54:16;-0.70;99.90
4058;DHT22;2044;48.692;9.020;2023-04-15T04:56:43;-0.60;99.90
4058;DHT22;2044;48.692;9.020;2023-04-15T04:59:09;-0.40;99.90
4058;DHT22;2044;48.692;9.020;2023-04-15T05:01:36;-0.30;99.90
4058;DHT22;2044;48.692;9.020;2023-04-15T05:04:03;-0.20;99.90
4058;DHT22;2044;48.692;9.020;2023-04-15T05:06:31;-0.20;99.90
4058;DHT22;2044;48.692;9.020;2023-04-15T05:08:59;-0.10;99.90
4058;DHT22;2044;48.692;9.020;2023-04-15T05:11:26;-0.10;99.90
4058;DHT22;2044;48.692;9.020;2023-04-15T05:13:52;0.00;99.90
4058;DHT22;2044;48.692;9.020;2023-04-15T05:16:19;0.30;99.90
4058;DHT22;2044;48.692;9.020;2023-04-15T05:18:46;0.30;99.90
4058;DHT22;2044;48.692;9.020;2023-04-15T05:21:13;1.00;99.90
4058;DHT22;2044;48.692;9.020;2023-04-15T05:23:39;2.00;99.90
4058;DHT22;2044;48.692;9.020;2023-04-15T05:26:08;2.80;99.90
4058;DHT22;2044;48.692;9.020;2023-04-15T05:28:34;3.30;99.90
4058;DHT22;2044;48.692;9.020;2023-04-15T05:31:01;3.40;99.90
4058;DHT22;2044;48.692;9.020;2023-04-15T05:33:28;3.30;99.90
4058;DHT22;2044;48.692;9.020;2023-04-15T05:35:55;3.50;99.90
4058;DHT22;2044;48.692;9.020;2023-04-15T05:38:21;4.70;99.90
4058;DHT22;2044;48.692;9.020;2023-04-15T05:40:48;4.70;99.90
4058;DHT22;2044;48.692;9.020;2023-04-15T05:43:16;5.00;99.90
4058;DHT22;2044;48.692;9.020;2023-04-15T05:45:43;6.40;99.90
4058;DHT22;2044;48.692;9.020;2023-04-15T05:48:10;7.10;99.90
4058;DHT22;2044;48.692;9.020;2023-04-15T05:50:39;7.50;99.90
4058;DHT22;2044;48.692;9.020;2023-04-15T05:53:06;8.40;1.00
4058;DHT22;2044;48.692;9.020;2023-04-15T05:55:32;9.40;99.90
4058;DHT22;2044;48.692;9.020;2023-04-15T05:57:59;9.00;99.90
4058;DHT22;2044;48.692;9.020;2023-04-15T06:00:27;8.10;99.90
4058;DHT22;2044;48.692;9.020;2023-04-15T06:02:55;7.10;99.90
4058;DHT22;2044;48.692;9.020;2023-04-15T06:05:22;6.40;99.90
4058;DHT22;2044;48.692;9.020;2023-04-15T06:07:48;6.40;99.90
4058;DHT22;2044;48.692;9.020;2023-04-15T06:10:15;6.50;99.90
4058;DHT22;2044;48.692;9.020;2023-04-15T06:12:42;6.50;99.90
4058;DHT22;2044;48.692;9.020;2023-04-15T06:15:09;6.80;99.90
4058;DHT22;2044;48.692;9.020;2023-04-15T06:17:37;7.30;99.90
4058;DHT22;2044;48.692;9.020;2023-04-15T06:20:05;7.80;99.90
4058;DHT22;2044;48.692;9.020;2023-04-15T06:22:33;8.30;99.90
4058;DHT22;2044;48.692;9.020;2023-04-15T06:25:02;8.70;99.90
4058;DHT22;2044;48.692;9.020;2023-04-15T06:27:29;8.90;99.90
4058;DHT22;2044;48.692;9.020;2023-04-15T06:29:56;9.30;99.90
4058;DHT22;2044;48.692;9.020;2023-04-15T06:32:23;9.10;1.00
4058;DHT22;2044;48.692;9.020;2023-04-15T06:34:51;9.80;99.90
4058;DHT22;2044;48.692;9.020;2023-04-15T06:37:17;9.80;99.90
4058;DHT22;2044;48.692;9.020;2023-04-15T06:39:44;8.80;83.60
4058;DHT22;2044;48.692;9.020;2023-04-15T06:42:11;8.30;99.90
4058;DHT22;2044;48.692;9.020;2023-04-15T06:44:38;8.30;99.90
4058;DHT22;2044;48.692;9.020;2023-04-15T06:47:05;8.40;99.90
4058;DHT22;2044;48.692;9.020;2023-04-15T06:49:32;9.00;99.90
4058;DHT22;2044;48.692;9.020;2023-04-15T06:52:01;9.90;99.90
4058;DHT22;2044;48.692;9.020;2023-04-15T06:54:29;10.30;99.90
4058;DHT22;2044;48.692;9.020;2023-04-15T06:56:56;10.20;99.90
4058;DHT22;2044;48.692;9.020;2023-04-15T06:59:22;10.10;99.90
4058;DHT22;2044;48.692;9.020;2023-04-15T07:01:49;10.00;99.90
4058;DHT22;2044;48.692;9.020;2023-04-15T07:04:16;10.50;99.90
4058;DHT22;2044;48.692;9.020;2023-04-15T07:06:43;10.60;99.90
4058;DHT22;2044;48.692;9.020;2023-04-15T07:09:11;12.40;99.90
4058;DHT22;2044;48.692;9.020;2023-04-15T07:11:38;13.10;99.90
4058;DHT22;2044;48.692;9.020;2023-04-15T07:14:05;13.00;99.90
4058;DHT22;2044;48.692;9.020;2023-04-15T07:16:32;14.70;99.90
4058;DHT22;2044;48.692;9.020;2023-04-15T07:18:58;18.00;99.90
4058;DHT22;2044;48.692;9.020;2023-04-15T07:21:25;18.50;99.90
4058;DHT22;2044;48.692;9.020;2023-04-15T07:23:53;19.20;99.90
4058;DHT22;2044;48.692;9.020;2023-04-15T07:26:21;20.10;99.90
4058;DHT22;2044;48.692;9.020;2023-04-15T07:28:48;20.40;99.90
4058;DHT22;2044;48.692;9.020;2023-04-15T07:31:15;20.40;99.90
4058;DHT22;2044;48.692;9.020;2023-04-15T07:33:42;20.50;99.90
4058;DHT22;2044;48.692;9.020;2023-04-15T07:36:08;20.20;99.90
4058;DHT22;2044;48.692;9.020;2023-04-15T07:38:35;19.60;99.90
4058;DHT22;2044;48.692;9.020;2023-04-15T07:41:02;19.60;99.90
4058;DHT22;2044;48.692;9.020;2023-04-15T07:43:30;18.20;99.90
4058;DHT22;2044;48.692;9.020;2023-04-15T07:45:57;18.20;99.90
4058;DHT22;2044;48.692;9.020;2023-04-15T07:48:24;19.10;99.90
4058;DHT22;2044;48.692;9.020;2023-04-15T07:50:51;19.10;99.90
4058;DHT22;2044;48.692;9.020;2023-04-15T07:53:17;19.30;99.90
4058;DHT22;2044;48.692;9.020;2023-04-15T07:55:44;19.30;99.90
4058;DHT22;2044;48.692;9.020;2023-04-15T07:58:11;19.60;99.90
4058;DHT22;2044;48.692;9.020;2023-04-15T08:00:39;19.80;99.90
4058;DHT22;2044;48.692;9.020;2023-04-15T08:03:06;20.40;99.90
4058;DHT22;2044;48.692;9.020;2023-04-15T08:05:32;22.00;99.90
4058;DHT22;2044;48.692;9.020;2023-04-15T08:07:59;23.30;99.90
4058;DHT22;2044;48.692;9.020;2023-04-15T08:12:53;24.00;99.90
4058;DHT22;2044;48.692;9.020;2023-04-15T08:15:20;24.10;99.90
4058;DHT22;2044;48.692;9.020;2023-04-15T08:17:49;24.20;99.90
4058;DHT22;2044;48.692;9.020;2023-04-15T08:20:15;24.70;99.90
4058;DHT22;2044;48.692;9.020;2023-04-15T08:22:43;24.50;99.90
4058;DHT22;2044;48.692;9.020;2023-04-15T08:25:12;24.60;99.90
4058;DHT22;2044;48.692;9.020;2023-04-15T08:27:39;24.80;99.90
4058;DHT22;2044;48.692;9.020;2023-04-15T08:30:07;22.50;99.90
4058;DHT22;2044;48.692;9.020;2023-04-15T08:32:34;21.80;99.90
4058;DHT22;2044;48.692;9.020;2023-04-15T08:35:02;20.70;99.90
4058;DHT22;2044;48.692;9.020;2023-04-15T08:37:28;19.60;99.90
4058;DHT22;2044;48.692;9.020;2023-04-15T08:39:55;18.70;99.90
4058;DHT22;2044;48.692;9.020;2023-04-15T08:42:26;18.70;99.90
4058;DHT22;2044;48.692;9.020;2023-04-15T08:44:54;18.70;99.90
4058;DHT22;2044;48.692;9.020;2023-04-15T08:47:22;18.00;99.90
4058;DHT22;2044;48.692;9.020;2023-04-15T08:49:54;17.40;99.90
4058;DHT22;2044;48.692;9.020;2023-04-15T08:52:25;17.60;99.90
4058;DHT22;2044;48.692;9.020;2023-04-15T08:54:53;17.50;99.90
4058;DHT22;2044;48.692;9.020;2023-04-15T08:57:24;17.50;99.90
4058;DHT22;2044;48.692;9.020;2023-04-15T08:59:52;17.30;99.90
4058;DHT22;2044;48.692;9.020;2023-04-15T09:02:19;17.20;99.90
4058;DHT22;2044;48.692;9.020;2023-04-15T09:04:46;16.80;99.90
4058;DHT22;2044;48.692;9.020;2023-04-15T09:07:13;16.40;99.90
4058;DHT22;2044;48.692;9.020;2023-04-15T09:09:41;16.90;99.90
4058;DHT22;2044;48.692;9.020;2023-04-15T09:12:10;17.30;99.90
4058;DHT22;2044;48.692;9.020;2023-04-15T09:14:39;17.90;99.90
4058;DHT22;2044;48.692;9.020;2023-04-15T09:17:09;18.10;99.90
4058;DHT22;2044;48.692;9.020;2023-04-15T09:19:36;18.70;99.90
4058;DHT22;2044;48.692;9.020;2023-04-15T09:22:03;18.70;99.90
4058;DHT22;2044;48.692;9.020;2023-04-15T09:24:35;18.70;99.90
4058;DHT22;2044;48.692;9.020;2023-04-15T09:27:05;19.00;99.90
4058;DHT22;2044;48.692;9.020;2023-04-15T09:29:32;18.50;99.90
4058;DHT22;2044;48.692;9.020;2023-04-15T09:32:09;18.10;99.90
4058;DHT22;2044;48.692;9.020;2023-04-15T09:34:36;18.20;99.90
4058;DHT22;2044;48.692;9.020;2023-04-15T09:37:03;17.90;99.90
4058;DHT22;2044;48.692;9.020;2023-04-15T09:39:44;17.90;99.90
4058;DHT22;2044;48.692;9.020;2023-04-15T09:42:13;17.90;99.90
4058;DHT22;2044;48.692;9.020;2023-04-15T09:44:40;18.30;99.90
4058;DHT22;2044;48.692;9.020;2023-04-15T09:49:34;17.80;99.90
4058;DHT22;2044;48.692;9.020;2023-04-15T09:52:01;17.50;99.90
4058;DHT22;2044;48.692;9.020;2023-04-15T09:54:33;17.50;99.90
4058;DHT22;2044;48.692;9.020;2023-04-15T09:57:04;17.40;99.90
4058;DHT22;2044;48.692;9.020;2023-04-15T09:59:33;17.60;99.90
4058;DHT22;2044;48.692;9.020;2023-04-15T10:02:03;18.10;99.90
4058;DHT22;2044;48.692;9.020;2023-04-15T10:04:32;19.10;99.90
4058;DHT22;2044;48.692;9.020;2023-04-15T10:07:02;18.70;99.90
4058;DHT22;2044;48.692;9.020;2023-04-15T10:09:30;17.20;99.90
4058;DHT22;2044;48.692;9.020;2023-04-15T10:11:58;17.10;99.90
4058;DHT22;2044;48.692;9.020;2023-04-15T10:14:27;17.40;99.90
4058;DHT22;2044;48.692;9.020;2023-04-15T10:17:00;17.40;99.90
4058;DHT22;2044;48.692;9.020;2023-04-15T10:19:30;17.30;99.90
4058;DHT22;2044;48.692;9.020;2023-04-15T10:21:57;17.20;99.90
4058;DHT22;2044;48.692;9.020;2023-04-15T10:24:24;17.00;99.90
4058;DHT22;2044;48.692;9.020;2023-04-15T10:26:51;17.20;99.90
4058;DHT22;2044;48.692;9.020;2023-04-15T10:29:20;17.20;99.90
4058;DHT22;2044;48.692;9.020;2023-04-15T10:31:47;17.20;99.90
4058;DHT22;2044;48.692;9.020;2023-04-15T10:34:16;17.10;99.90
4058;DHT22;2044;48.692;9.020;2023-04-15T10:36:43;16.80;99.90
4058;DHT22;2044;48.692;9.020;2023-04-15T10:39:39;15.90;99.90
4058;DHT22;2044;48.692;9.020;2023-04-15T10:42:08;15.80;99.90
4058;DHT22;2044;48.692;9.020;2023-04-15T10:44:36;16.00;99.90
4058;DHT22;2044;48.692;9.020;2023-04-15T10:47:10;16.10;99.90
4058;DHT22;2044;48.692;9.020;2023-04-15T10:49:47;16.40;99.90
4058;DHT22;2044;48.692;9.020;2023-04-15T10:52:15;16.40;99.90
4058;DHT22;2044;48.692;9.020;2023-04-15T10:54:43;16.60;99.90
4058;DHT22;2044;48.692;9.020;2023-04-15T10:57:15;16.40;99.90
4058;DHT22;2044;48.692;9.020;2023-04-15T11:00:03;16.50;99.90
4058;DHT22;2044;48.692;9.020;2023-04-15T11:02:43;16.10;99.90
4058;DHT22;2044;48.692;9.020;2023-04-15T11:05:12;15.70;99.90
4058;DHT22;2044;48.692;9.020;2023-04-15T11:07:46;15.70;99.90
4058;DHT22;2044;48.692;9.020;2023-04-15T11:13:20;15.30;99.90
4058;DHT22;2044;48.692;9.020;2023-04-15T11:15:48;14.60;99.90
4058;DHT22;2044;48.692;9.020;2023-04-15T11:18:17;13.80;99.90
4058;DHT22;2044;48.692;9.020;2023-04-15T11:20:48;13.70;99.90
4058;DHT22;2044;48.692;9.020;2023-04-15T11:23:17;13.90;99.90
4058;DHT22;2044;48.692;9.020;2023-04-15T11:25:44;14.50;99.90
4058;DHT22;2044;48.692;9.020;2023-04-15T11:28:12;14.70;99.90
4058;DHT22;2044;48.692;9.020;2023-04-15T11:30:39;15.40;99.90
4058;DHT22;2044;48.692;9.020;2023-04-15T11:33:09;16.00;99.90
4058;DHT22;2044;48.692;9.020;2023-04-15T11:35:36;16.00;99.90
4058;DHT22;2044;48.692;9.020;2023-04-15T11:38:09;15.80;99.90
4058;DHT22;2044;48.692;9.020;2023-04-15T11:40:37;15.40;99.90
4058;DHT22;2044;48.692;9.020;2023-04-15T11:43:05;15.30;99.90
4058;DHT22;2044;48.692;9.020;2023-04-15T11:48:06;15.70;99.90
4058;DHT22;2044;48.692;9.020;2023-04-15T11:50:33;16.40;99.90
4058;DHT22;2044;48.692;9.020;2023-04-15T11:53:02;17.30;99.90
4058;DHT22;2044;48.692;9.020;2023-04-15T11:55:30;17.70;99.90
4058;DHT22;2044;48.692;9.020;2023-04-15T11:58:11;18.00;99.90
4058;DHT22;2044;48.692;9.020;2023-04-15T12:00:38;17.30;99.90
4058;DHT22;2044;48.692;9.020;2023-04-15T12:03:13;17.20;99.90
4058;DHT22;2044;48.692;9.020;2023-04-15T12:06:02;17.30;99.90
4058;DHT22;2044;48.692;9.020;2023-04-15T12:08:47;17.40;99.90
4058;DHT22;2044;48.692;9.020;2023-04-15T12:11:16;17.30;99.90
4058;DHT22;2044;48.692;9.020;2023-04-15T12:13:43;17.70;99.90
4058;DHT22;2044;48.692;9.020;2023-04-15T12:16:09;17.60;99.90
4058;DHT22;2044;48.692;9.020;2023-04-15T12:18:37;17.10;99.90
4058;DHT22;2044;48.692;9.020;2023-04-15T12:21:08;17.20;99.90
4058;DHT22;2044;48.692;9.020;2023-04-15T12:23:36;17.20;99.90
4058;DHT22;2044;48.692;9.020;2023-04-15T12:26:04;17.40;99.90
4058;DHT22;2044;48.692;9.020;2023-04-15T12:28:33;17.10;99.90
4058;DHT22;2044;48.692;9.020;2023-04-15T12:31:06;17.20;99.90
4058;DHT22;2044;48.692;9.020;2023-04-15T12:33:33;17.40;99.90
4058;DHT22;2044;48.692;9.020;2023-04-15T12:36:00;17.40;99.90
4058;DHT22;2044;48.692;9.020;2023-04-15T12:38:26;15.90;99.90
4058;DHT22;2044;48.692;9.020;2023-04-15T12:40:53;15.80;99.90
4058;DHT22;2044;48.692;9.020;2023-04-15T12:43:20;15.70;99.90
4058;DHT22;2044;48.692;9.020;2023-04-15T12:45:48;15.70;99.90
4058;DHT22;2044;48.692;9.020;2023-04-15T12:50:42;15.90;99.90
4058;DHT22;2044;48.692;9.020;2023-04-15T12:53:08;16.30;99.90
4058;DHT22;2044;48.692;9.020;2023-04-15T12:58:02;16.30;99.90
4058;DHT22;2044;48.692;9.020;2023-04-15T13:00:29;16.00;99.90
4058;DHT22;2044;48.692;9.020;2023-04-15T13:02:57;16.20;99.90
4058;DHT22;2044;48.692;9.020;2023-04-15T13:05:23;16.40;99.90
4058;DHT22;2044;48.692;9.020;2023-04-15T13:07:50;16.30;99.90
4058;DHT22;2044;48.692;9.020;2023-04-15T13:10:17;15.70;99.90
4058;DHT22;2044;48.692;9.020;2023-04-15T13:12:43;14.90;99.90
4058;DHT22;2044;48.692;9.020;2023-04-15T13:15:13;14.40;99.90
4058;DHT22;2044;48.692;9.020;2023-04-15T13:17:43;14.00;99.90
4058;DHT22;2044;48.692;9.020;2023-04-15T13:20:11;14.10;99.90
4058;DHT22;2044;48.692;9.020;2023-04-15T13:22:38;14.10;99.90
4058;DHT22;2044;48.692;9.020;2023-04-15T13:25:06;14.30;99.90
4058;DHT22;2044;48.692;9.020;2023-04-15T13:27:33;14.10;99.90
4058;DHT22;2044;48.692;9.020;2023-04-15T13:30:00;13.80;99.90
4058;DHT22;2044;48.692;9.020;2023-04-15T13:32:27;13.40;99.90
4058;DHT22;2044;48.692;9.020;2023-04-15T13:37:26;13.00;99.90
4058;DHT22;2044;48.692;9.020;2023-04-15T13:39:53;12.50;99.90
4058;DHT22;2044;48.692;9.020;2023-04-15T13:42:20;12.20;99.90
4058;DHT22;2044;48.692;9.020;2023-04-15T13:44:48;11.90;99.90
4058;DHT22;2044;48.692;9.020;2023-04-15T13:47:15;11.80;99.90
4058;DHT22;2044;48.692;9.020;2023-04-15T13:49:42;11.30;99.90
4058;DHT22;2044;48.692;9.020;2023-04-15T13:52:09;10.90;99.90
4058;DHT22;2044;48.692;9.020;2023-04-15T13:54:38;10.90;99.90
4058;DHT22;2044;48.692;9.020;2023-04-15T13:57:05;11.00;99.90
4058;DHT22;2044;48.692;9.020;2023-04-15T13:59:32;11.60;99.90
4058;DHT22;2044;48.692;9.020;2023-04-15T14:01:59;11.70;99.90
4058;DHT22;2044;48.692;9.020;2023-04-15T14:04:26;12.20;99.90
4058;DHT22;2044;48.692;9.020;2023-04-15T14:06:52;12.60;99.90
4058;DHT22;2044;48.692;9.020;2023-04-15T14:09:19;13.00;99.90
4058;DHT22;2044;48.692;9.020;2023-04-15T14:11:49;13.10;99.90
4058;DHT22;2044;48.692;9.020;2023-04-15T14:14:16;13.40;99.90
4058;DHT22;2044;48.692;9.020;2023-04-15T14:16:43;13.60;99.90
4058;DHT22;2044;48.692;9.020;2023-04-15T14:19:09;13.30;99.90
4058;DHT22;2044;48.692;9.020;2023-04-15T14:21:37;13.10;99.90
4058;DHT22;2044;48.692;9.020;2023-04-15T14:24:04;12.80;99.90
4058;DHT22;2044;48.692;9.020;2023-04-15T14:26:31;12.80;99.90
4058;DHT22;2044;48.692;9.020;2023-04-15T14:28:59;12.60;99.90
4058;DHT22;2044;48.692;9.020;2023-04-15T14:31:26;12.60;99.90
4058;DHT22;2044;48.692;9.020;2023-04-15T14:33:52;12.40;99.90
4058;DHT22;2044;48.692;9.020;2023-04-15T14:36:19;12.00;99.90
4058;DHT22;2044;48.692;9.020;2023-04-15T14:38:46;11.60;99.90
4058;DHT22;2044;48.692;9.020;2023-04-15T14:41:12;11.70;99.90
4058;DHT22;2044;48.692;9.020;2023-04-15T14:43:39;11.60;99.90
4058;DHT22;2044;48.692;9.020;2023-04-15T14:46:07;11.60;99.90
4058;DHT22;2044;48.692;9.020;2023-04-15T14:48:34;11.40;99.90
4058;DHT22;2044;48.692;9.020;2023-04-15T14:51:00;11.40;99.90
4058;DHT22;2044;48.692;9.020;2023-04-15T14:53:27;11.40;99.90
4058;DHT22;2044;48.692;9.020;2023-04-15T14:55:54;11.40;99.90
4058;DHT22;2044;48.692;9.020;2023-04-15T14:58:21;11.30;99.90
4058;DHT22;2044;48.692;9.020;2023-04-15T15:00:48;11.30;99.90
4058;DHT22;2044;48.692;9.020;2023-04-15T15:03:16;11.40;99.90
4058;DHT22;2044;48.692;9.020;2023-04-15T15:05:44;11.40;99.90
4058;DHT22;2044;48.692;9.020;2023-04-15T15:08:12;11.10;99.90
4058;DHT22;2044;48.692;9.020;2023-04-15T15:10:39;10.80;99.90
4058;DHT22;2044;48.692;9.020;2023-04-15T15:13:08;10.80;99.90
4058;DHT22;2044;48.692;9.020;2023-04-15T15:15:36;10.70;99.90
4058;DHT22;2044;48.692;9.020;2023-04-15T15:18:03;10.60;99.90
4058;DHT22;2044;48.692;9.020;2023-04-15T15:20:32;10.50;99.90
4058;DHT22;2044;48.692;9.020;2023-04-15T15:23:00;10.50;99.90
4058;DHT22;2044;48.692;9.020;2023-04-15T15:25:27;10.50;99.90
4058;DHT22;2044;48.692;9.020;2023-04-15T15:27:54;10.70;99.90
4058;DHT22;2044;48.692;9.020;2023-04-15T15:30:20;10.80;99.90
4058;DHT22;2044;48.692;9.020;2023-04-15T15:32:47;10.90;99.90
4058;DHT22;2044;48.692;9.020;2023-04-15T15:35:14;11.00;99.90
4058;DHT22;2044;48.692;9.020;2023-04-15T15:37:42;10.90;99.90
4058;DHT22;2044;48.692;9.020;2023-04-15T15:40:10;10.70;99.90
4058;DHT22;2044;48.692;9.020;2023-04-15T15:42:38;10.60;99.90
4058;DHT22;2044;48.692;9.020;2023-04-15T15:45:05;10.70;99.90
4058;DHT22;2044;48.692;9.020;2023-04-15T15:47:32;10.70;99.90
4058;DHT22;2044;48.692;9.020;2023-04-15T15:52:26;10.70;99.90
4058;DHT22;2044;48.692;9.020;2023-04-15T15:54:54;10.50;99.90
4058;DHT22;2044;48.692;9.020;2023-04-15T15:57:21;10.50;58.70
4058;DHT22;2044;48.692;9.020;2023-04-15T15:59:47;10.40;99.90
4058;DHT22;2044;48.692;9.020;2023-04-15T16:04:41;10.30;99.90
4058;DHT22;2044;48.692;9.020;2023-04-15T16:07:08;10.10;99.90
4058;DHT22;2044;48.692;9.020;2023-04-15T16:09:35;10.00;99.90
4058;DHT22;2044;48.692;9.020;2023-04-15T16:12:04;10.00;99.90
4058;DHT22;2044;48.692;9.020;2023-04-15T16:14:30;10.10;99.90
4058;DHT22;2044;48.692;9.020;2023-04-15T16:16:58;10.20;99.90
4058;DHT22;2044;48.692;9.020;2023-04-15T16:19:24;10.40;99.90
4058;DHT22;2044;48.692;9.020;2023-04-15T16:21:51;10.40;99.90
4058;DHT22;2044;48.692;9.020;2023-04-15T16:24:18;10.30;99.90
4058;DHT22;2044;48.692;9.020;2023-04-15T16:26:44;10.30;99.90
4058;DHT22;2044;48.692;9.020;2023-04-15T16:29:12;10.20;99.90
4058;DHT22;2044;48.692;9.020;2023-04-15T16:31:40;10.20;99.90
4058;DHT22;2044;48.692;9.020;2023-04-15T16:34:06;10.00;99.90
4058;DHT22;2044;48.692;9.020;2023-04-15T16:36:34;9.80;1.00
4058;DHT22;2044;48.692;9.020;2023-04-15T16:39:01;9.20;99.90
4058;DHT22;2044;48.692;9.020;2023-04-15T16:41:28;9.10;99.90
4058;DHT22;2044;48.692;9.020;2023-04-15T16:43:55;8.80;99.90
4058;DHT22;2044;48.692;9.020;2023-04-15T16:46:24;8.70;99.90
4058;DHT22;2044;48.692;9.020;2023-04-15T16:48:50;8.40;99.90
4058;DHT22;2044;48.692;9.020;2023-04-15T16:51:17;8.40;99.90
4058;DHT22;2044;48.692;9.020;2023-04-15T16:53:44;8.40;99.90
4058;DHT22;2044;48.692;9.020;2023-04-15T16:56:10;8.30;99.90
4058;DHT22;2044;48.692;9.020;2023-04-15T16:58:37;8.10;99.90
4058;DHT22;2044;48.692;9.020;2023-04-15T17:01:04;8.10;99.90
4058;DHT22;2044;48.692;9.020;2023-04-15T17:03:32;8.00;99.90
4058;DHT22;2044;48.692;9.020;2023-04-15T17:05:59;7.90;99.90
4058;DHT22;2044;48.692;9.020;2023-04-15T17:08:25;7.80;99.90
4058;DHT22;2044;48.692;9.020;2023-04-15T17:10:52;7.80;99.90
4058;DHT22;2044;48.692;9.020;2023-04-15T17:13:19;7.60;99.90
4058;DHT22;2044;48.692;9.020;2023-04-15T17:15:46;7.50;99.90
4058;DHT22;2044;48.692;9.020;2023-04-15T17:18:13;7.40;99.90
4058;DHT22;2044;48.692;9.020;2023-04-15T17:20:42;7.30;99.90
4058;DHT22;2044;48.692;9.020;2023-04-15T17:23:08;7.20;99.90
4058;DHT22;2044;48.692;9.020;2023-04-15T17:25:36;7.10;99.90
4058;DHT22;2044;48.692;9.020;2023-04-15T17:28:03;7.10;99.90
4058;DHT22;2044;48.692;9.020;2023-04-15T17:30:29;7.00;99.90
4058;DHT22;2044;48.692;9.020;2023-04-15T17:32:57;6.90;99.90
4058;DHT22;2044;48.692;9.020;2023-04-15T17:35:24;6.90;99.90
4058;DHT22;2044;48.692;9.020;2023-04-15T17:37:52;6.80;99.90